CYOO

Oshawa Airport

Oshawa, , Canada
TAF CYOO 190138Z 1902/1914 29008KT P6SM BKN040 OVC160 BECMG 1903/1905 01008KT FM190700 03008KT P6SM BKN120 FM191200 04010KT 6SM -SN FEW020 OVC090 RMK FCST BASED ON AUTO OBS. NXT FCST BY 190800Z
Issued Valid From Valid To
Jan-19 @ 01:38 UTC
(an hour ago)
Jan-19 @ 02:00 UTC
(55 minutes ago)
Jan-19 @ 14:00 UTC
(in 11 hours)
Jan-19 @ 02:00 to Jan-19 @ 03:00
TAF CYOO 190138Z 1902/1914 29008KT P6SM BKN040 OVC160
Wind Visibility Clouds
290° at 8 knots Greater than 6 miles
  • Broken at 4,000' AGL
  • Overcast at 16,000' AGL
Becoming Jan-19 @ 03:00 to Jan-19 @ 07:00
BECMG 1903/1905 01008KT
Wind Visibility Clouds
10° at 8 knots Greater than 6 miles
  • Broken at 4,000' AGL
  • Overcast at 16,000' AGL
From Jan-19 @ 07:00 to Jan-19 @ 12:00
FM190700 03008KT P6SM BKN120
Wind Visibility Clouds
30° at 8 knots Greater than 6 miles
  • Broken at 12,000' AGL
From Jan-19 @ 12:00 to Jan-19 @ 14:00
FM191200 04010KT 6SM -SN FEW020 OVC090 RMK FCST BASED ON AUTO OBS. NXT FCST BY 190800Z
Wind Visibility Clouds Conditions
40° at 10 knots 6 miles
  • Few at 2,000' AGL
  • Overcast at 9,000' AGL
  • Light Snow
TAF CYOO 190138Z 1902/1914 29008KT P6SM BKN040 OVC160 BECMG 1903/1905 01008KT FM190700 03008KT P6SM BKN120 FM191200 04010KT 6SM -SN FEW020 OVC090 RMK FCST BASED ON AUTO OBS. NXT FCST BY 190800Z
Issued Jan-19 @ 01:38 UTC
(an hour ago)
Valid From Jan-19 @ 02:00 UTC
(55 minutes ago)
Valid To Jan-19 @ 14:00 UTC
(in 11 hours)
Jan-19 @ 02:00 - Jan-19 @ 03:00
Wind Visibility
290° at 8 knots Greater than 6 miles
Clouds
  • Broken at 4,000' AGL
  • Overcast at 16,000' AGL
Becoming Jan-19 @ 03:00 - Jan-19 @ 07:00
Wind Visibility
10° at 8 knots Greater than 6 miles
Clouds
  • Broken at 4,000' AGL
  • Overcast at 16,000' AGL
From Jan-19 @ 07:00 - Jan-19 @ 12:00
Wind Visibility
30° at 8 knots Greater than 6 miles
Clouds
  • Broken at 12,000' AGL
From Jan-19 @ 12:00 - Jan-19 @ 14:00
Wind Visibility
40° at 10 knots 6 miles
Clouds
  • Few at 2,000' AGL
  • Overcast at 9,000' AGL
Conditions
  • Light Snow